Terminal Aerodrome Forecast
Issued by NWS Mt. Holly, NJ

Home | Current Version | Previous Version | Text Only | Print | Product List | Glossary On
Versions: 1 2 3 4 5 6 7 8 9 10 11 12 13 14
000
FTAK31 PANC 250531
TAFABE
TAF
PABE 250531Z 2506/2606 28006KT P6SM SCT040 BKN090
     FM260400 18012G20KT P6SM -SHRA SCT020 BKN030=

USA.gov is the U.S. government's official web portal to all federal, state and local government web resources and services.